createdAt,value
2022-09-12T00:01:19.452Z,95035.53
2022-09-12T00:03:47.037Z,95044.56
2022-09-12T00:06:22.402Z,95045.34
2022-09-12T00:08:49.685Z,95038.47
2022-09-12T00:11:16.284Z,95045.88
2022-09-12T00:13:43.410Z,95039.00
2022-09-12T00:16:19.451Z,95043.50
2022-09-12T00:18:46.944Z,95044.31
2022-09-12T00:21:14.486Z,95039.53
2022-09-12T00:23:41.141Z,95032.91
2022-09-12T00:26:08.262Z,95027.59
2022-09-12T00:28:36.894Z,95023.63
2022-09-12T00:31:05.825Z,95024.94
2022-09-12T00:33:34.647Z,95029.47
2022-09-12T00:36:05.371Z,95026.25
2022-09-12T00:38:32.455Z,95026.81
2022-09-12T00:40:59.361Z,95027.06
2022-09-12T00:43:44.999Z,95016.19
2022-09-12T00:46:25.639Z,95015.38
2022-09-12T00:48:57.501Z,95013.25
2022-09-12T00:51:24.638Z,95014.56
2022-09-12T00:53:53.744Z,95016.97
2022-09-12T00:56:21.878Z,95014.31
2022-09-12T00:58:53.936Z,95012.16
2022-09-12T01:01:20.787Z,95003.41
2022-09-12T01:03:47.663Z,95011.34
2022-09-12T01:06:18.205Z,95011.88
2022-09-12T01:08:47.780Z,95004.97
2022-09-12T01:11:15.635Z,95001.00
2022-09-12T01:13:43.992Z,94992.81
2022-09-12T01:16:10.906Z,94991.72
2022-09-12T01:18:49.095Z,94980.88
2022-09-12T01:21:23.484Z,94989.34
2022-09-12T01:24:26.247Z,94986.66
2022-09-12T01:27:25.289Z,94976.56
2022-09-12T01:30:24.346Z,94973.59
2022-09-12T01:33:12.753Z,94976.25
2022-09-12T01:35:49.995Z,94974.38
2022-09-12T01:38:25.911Z,94970.63
2022-09-12T01:41:02.087Z,94975.94
2022-09-12T01:43:35.388Z,94972.25
2022-09-12T01:46:09.493Z,94974.91
2022-09-12T01:48:42.503Z,94957.94
2022-09-12T01:51:17.918Z,94964.81
2022-09-12T01:53:49.077Z,94971.13
2022-09-12T01:56:21.522Z,94965.28
2022-09-12T01:58:53.350Z,94960.81
2022-09-12T02:01:24.723Z,94961.06
2022-09-12T02:04:00.452Z,94961.34
2022-09-12T02:06:29.306Z,94953.94
2022-09-12T02:08:58.517Z,94951.56
2022-09-12T02:11:25.269Z,94954.72
2022-09-12T02:13:57.403Z,94948.09
2022-09-12T02:16:29.432Z,94946.28
2022-09-12T02:19:02.962Z,94943.09
2022-09-12T02:21:32.966Z,94946.81
2022-09-12T02:24:03.575Z,94941.53
2022-09-12T02:26:35.313Z,94944.72
2022-09-12T02:29:03.174Z,94943.91
2022-09-12T02:31:37.253Z,94939.66
2022-09-12T02:34:26.791Z,94942.31
2022-09-12T02:37:04.418Z,94936.75
2022-09-12T02:39:31.390Z,94936.47
2022-09-12T02:42:00.929Z,94933.56
2022-09-12T02:44:29.720Z,94934.34
2022-09-12T02:47:01.146Z,94936.44
2022-09-12T02:49:29.185Z,94938.78
2022-09-12T02:51:55.913Z,94933.97
2022-09-12T02:54:23.810Z,94931.78
2022-09-12T02:56:50.414Z,94931.22
2022-09-12T02:59:20.735Z,94930.09
2022-09-12T03:02:03.950Z,94933.81
2022-09-12T03:04:48.481Z,94931.16
2022-09-12T03:07:28.681Z,94930.56
2022-09-12T03:10:03.327Z,94933.19
2022-09-12T03:12:43.365Z,94932.38
2022-09-12T03:15:22.476Z,94924.22
2022-09-12T03:18:03.579Z,94923.41
2022-09-12T03:20:44.569Z,94930.59
2022-09-12T03:23:23.041Z,94922.16
2022-09-12T03:25:55.979Z,94917.13
2022-09-12T03:28:23.635Z,94926.88
2022-09-12T03:30:54.718Z,94917.13
2022-09-12T03:33:22.817Z,94927.19
2022-09-12T03:35:51.890Z,94913.19
2022-09-12T03:38:19.442Z,94917.13
2022-09-12T03:40:47.795Z,94927.44
2022-09-12T03:43:16.040Z,94915.00
2022-09-12T03:45:42.769Z,94915.53
2022-09-12T03:48:10.117Z,94910.81
2022-09-12T03:50:36.769Z,94911.88
2022-09-12T03:53:04.801Z,94916.09
2022-09-12T03:55:31.454Z,94907.38
2022-09-12T03:57:58.186Z,94911.06
2022-09-12T04:00:24.903Z,94910.53
2022-09-12T04:02:55.346Z,94906.03
2022-09-12T04:05:21.990Z,94912.34
2022-09-12T04:07:48.749Z,94909.19
2022-09-12T04:10:17.034Z,94913.94
2022-09-12T04:12:43.933Z,94912.34
2022-09-12T04:15:11.056Z,94915.00
2022-09-12T04:17:37.772Z,94913.16
2022-09-12T04:20:05.577Z,94912.59
2022-09-12T04:22:33.259Z,94921.59
2022-09-12T04:24:59.894Z,94916.00
2022-09-12T04:27:27.992Z,94915.47
2022-09-12T04:29:56.043Z,94922.59
2022-09-12T04:32:22.806Z,94923.91
2022-09-12T04:34:49.502Z,94927.31
2022-09-12T04:37:16.859Z,94924.16
2022-09-12T04:39:43.739Z,94926.25
2022-09-12T04:42:10.382Z,94922.81
2022-09-12T04:44:38.422Z,94922.81
2022-09-12T04:47:05.135Z,94922.00
2022-09-12T04:49:31.973Z,94921.47
2022-09-12T04:51:58.670Z,94920.63
2022-09-12T04:54:25.574Z,94924.31
2022-09-12T04:56:52.594Z,94922.75
2022-09-12T04:59:20.620Z,94926.41
2022-09-12T05:01:49.052Z,94925.88
2022-09-12T05:04:15.867Z,94922.13
2022-09-12T05:06:42.990Z,94920.72
2022-09-12T05:09:12.349Z,94926.78
2022-09-12T05:12:03.205Z,94920.91
2022-09-12T05:14:26.447Z,94921.66
2022-09-12T05:16:56.324Z,94922.44
2022-09-12T05:19:23.526Z,94927.22
2022-09-12T05:21:50.267Z,94930.19
2022-09-12T05:24:17.048Z,94919.09
2022-09-12T05:26:43.900Z,94926.53
2022-09-12T05:29:10.642Z,94926.00
2022-09-12T05:31:37.684Z,94927.34
2022-09-12T05:34:07.080Z,94927.91
2022-09-12T05:36:33.787Z,94931.88
2022-09-12T05:39:00.938Z,94938.22
2022-09-12T05:41:30.695Z,94937.69
2022-09-12T05:43:59.027Z,94939.25
2022-09-12T05:46:27.446Z,94942.22
2022-09-12T05:48:56.560Z,94948.56
2022-09-12T05:51:27.362Z,94951.25
2022-09-12T05:53:56.700Z,94957.13
2022-09-12T05:56:23.911Z,94956.06
2022-09-12T05:58:54.196Z,94955.31
2022-09-12T06:01:20.883Z,94950.06
2022-09-12T06:03:49.412Z,94950.09
2022-09-12T06:06:18.630Z,94944.31
2022-09-12T06:08:49.408Z,94948.84
2022-09-12T06:11:18.984Z,94950.16
2022-09-12T06:13:45.601Z,94943.84
2022-09-12T06:16:15.356Z,94942.59
2022-09-12T06:18:47.070Z,94942.13
2022-09-12T06:21:14.419Z,94938.22
2022-09-12T06:23:41.720Z,94942.25
2022-09-12T06:26:10.860Z,94939.34
2022-09-12T06:28:38.443Z,94944.41
2022-09-12T06:31:07.118Z,94934.66
2022-09-12T06:33:35.200Z,94940.50
2022-09-12T06:36:11.518Z,94938.41
2022-09-12T06:38:40.018Z,94942.94
2022-09-12T06:41:08.340Z,94943.22
2022-09-12T06:43:37.006Z,94930.25
2022-09-12T06:46:04.692Z,94927.34
2022-09-12T06:48:31.634Z,94934.25
2022-09-12T06:50:59.582Z,94934.50
2022-09-12T06:53:27.367Z,94924.69
2022-09-12T06:55:58.283Z,94925.44
2022-09-12T06:58:25.562Z,94935.22
2022-09-12T07:00:58.945Z,94934.06
2022-09-12T07:03:25.694Z,94927.59
2022-09-12T07:05:52.405Z,94922.25
2022-09-12T07:08:19.042Z,94921.38
2022-09-12T07:10:45.663Z,94916.47
2022-09-12T07:13:12.353Z,94925.13
2022-09-12T07:15:39.000Z,94921.56
2022-09-12T07:18:07.228Z,94923.06
2022-09-12T07:20:34.685Z,94925.94
2022-09-12T07:23:01.377Z,94928.44
2022-09-12T07:25:28.094Z,94930.22
2022-09-12T07:27:55.302Z,94919.69
2022-09-12T07:30:23.214Z,94925.41
2022-09-12T07:32:52.416Z,94926.31
2022-09-12T07:35:20.716Z,94918.22
2022-09-12T07:37:47.475Z,94920.50
2022-09-12T07:40:14.711Z,94926.94
2022-09-12T07:42:41.370Z,94924.78
2022-09-12T07:45:09.263Z,94919.47
2022-09-12T07:47:35.857Z,94919.25
2022-09-12T07:50:02.615Z,94916.84
2022-09-12T07:52:31.243Z,94924.81
2022-09-12T07:54:58.736Z,94930.66
2022-09-12T07:57:25.739Z,94920.19
2022-09-12T07:59:53.346Z,94920.00
2022-09-12T08:02:20.323Z,94916.78
2022-09-12T08:04:48.128Z,94916.63
2022-09-12T08:07:15.454Z,94918.03
2022-09-12T08:09:43.388Z,94914.56
2022-09-12T08:12:10.255Z,94916.44
2022-09-12T08:14:36.858Z,94916.81
2022-09-12T08:17:03.504Z,94915.84
2022-09-12T08:19:31.689Z,94922.25
2022-09-12T08:21:58.338Z,94925.09
2022-09-12T08:24:25.366Z,94927.59
2022-09-12T08:26:53.439Z,94932.13
2022-09-12T08:29:20.198Z,94919.13
2022-09-12T08:31:47.122Z,94926.13
2022-09-12T08:34:13.897Z,94921.97
2022-09-12T08:36:41.028Z,94921.50
2022-09-12T08:39:07.796Z,94922.97
2022-09-12T08:41:37.798Z,94925.25
2022-09-12T08:44:39.965Z,94926.00
2022-09-12T08:47:22.383Z,94921.47
2022-09-12T08:50:12.695Z,94924.06
2022-09-12T08:52:47.094Z,94920.16
2022-09-12T08:55:25.692Z,94917.66
2022-09-12T08:57:53.191Z,94919.53
2022-09-12T09:00:21.543Z,94907.38
2022-09-12T09:03:14.869Z,94915.59
2022-09-12T09:05:48.678Z,94909.44
2022-09-12T09:08:28.326Z,94902.00
2022-09-12T09:11:02.408Z,94903.38
2022-09-12T09:14:05.350Z,94896.09
2022-09-12T09:16:35.030Z,94890.38
2022-09-12T09:19:06.547Z,94894.41
2022-09-12T09:21:38.303Z,94891.69
2022-09-12T09:24:07.767Z,94889.53
2022-09-12T09:26:43.245Z,94895.91
2022-09-12T09:29:17.152Z,94894.09
2022-09-12T09:31:48.491Z,94887.00
2022-09-12T09:34:21.029Z,94888.47
2022-09-12T09:36:57.124Z,94885.50
2022-09-12T09:39:34.977Z,94890.69
2022-09-12T09:42:22.550Z,94881.94
2022-09-12T09:44:52.783Z,94889.03
2022-09-12T09:47:19.819Z,94885.25
2022-09-12T09:49:47.934Z,94887.34
2022-09-12T09:52:17.443Z,94889.97
2022-09-12T09:54:49.686Z,94883.56
2022-09-12T09:57:42.723Z,94879.47
2022-09-12T10:00:28.179Z,94877.31
2022-09-12T10:03:04.919Z,94882.81
2022-09-12T10:05:35.715Z,94878.00
2022-09-12T10:08:10.423Z,94879.25
2022-09-12T10:10:37.095Z,94875.41
2022-09-12T10:13:23.856Z,94872.03
2022-09-12T10:15:58.220Z,94866.88
2022-09-12T10:18:40.639Z,94862.16
2022-09-12T10:21:29.982Z,94866.63
2022-09-12T10:24:19.531Z,94862.00
2022-09-12T10:26:55.913Z,94855.56
2022-09-12T10:29:27.939Z,94856.69
2022-09-12T10:31:57.485Z,94859.38
2022-09-12T10:34:28.888Z,94854.97
2022-09-12T10:37:02.302Z,94853.63
2022-09-12T10:39:29.764Z,94858.41
2022-09-12T10:41:57.414Z,94853.94
2022-09-12T10:44:27.699Z,94857.63
2022-09-12T10:46:55.290Z,94847.53
2022-09-12T10:49:26.827Z,94847.41
2022-09-12T10:51:55.669Z,94847.16
2022-09-12T10:54:26.261Z,94849.88
2022-09-12T10:57:12.056Z,94846.72
2022-09-12T11:00:00.640Z,94840.97
2022-09-12T11:02:29.499Z,94840.72
2022-09-12T11:05:08.786Z,94844.41
2022-09-12T11:07:42.657Z,94839.28
2022-09-12T11:10:36.347Z,94842.41
2022-09-12T11:13:19.702Z,94834.38
2022-09-12T11:16:04.321Z,94835.53
2022-09-12T11:18:48.541Z,94834.19
2022-09-12T11:21:30.507Z,94827.59
2022-09-12T11:24:16.438Z,94832.53
2022-09-12T11:27:11.411Z,94826.59
2022-09-12T11:29:49.473Z,94825.81
2022-09-12T11:32:41.087Z,94820.16
2022-09-12T11:35:18.853Z,94817.34
2022-09-12T11:40:46.182Z,94818.25
2022-09-12T11:49:05.244Z,94805.59
2022-09-12T11:51:37.466Z,94811.09
2022-09-12T11:59:58.829Z,94807.69
2022-09-12T12:02:29.574Z,94806.78
2022-09-12T12:05:06.007Z,94807.81
2022-09-12T12:07:45.635Z,94812.88
2022-09-12T12:10:25.358Z,94810.09
2022-09-12T12:13:04.593Z,94814.28
2022-09-12T12:15:39.627Z,94809.41
2022-09-12T12:18:15.163Z,94809.94
2022-09-12T12:20:50.093Z,94808.28
2022-09-12T12:23:31.059Z,94807.88
2022-09-12T12:26:00.100Z,94804.38
2022-09-12T12:28:58.878Z,94794.88
2022-09-12T12:31:32.806Z,94796.94
2022-09-12T12:37:46.073Z,94789.81
2022-09-12T12:40:23.351Z,94792.88
2022-09-12T12:42:59.550Z,94798.56
2022-09-12T12:46:00.476Z,94787.69
2022-09-12T12:48:37.370Z,94791.41
2022-09-12T12:57:48.611Z,94781.00
2022-09-12T13:00:30.767Z,94780.22
2022-09-12T13:03:01.362Z,94784.75
2022-09-12T13:05:49.850Z,94769.66
2022-09-12T13:08:32.661Z,94774.38
2022-09-12T13:11:03.234Z,94770.72
2022-09-12T13:13:42.339Z,94762.59
2022-09-12T13:16:10.461Z,94766.59
2022-09-12T13:21:26.510Z,94751.03
2022-09-12T13:24:02.736Z,94748.25
2022-09-12T13:26:42.333Z,94747.94
2022-09-12T13:29:12.662Z,94741.38
2022-09-12T13:31:43.167Z,94736.56
2022-09-12T13:34:20.398Z,94744.19
2022-09-12T13:37:05.123Z,94746.38
2022-09-12T13:39:46.620Z,94742.88
2022-09-12T13:42:40.866Z,94737.81
2022-09-12T13:45:13.524Z,94737.19
2022-09-12T13:47:43.290Z,94735.19
2022-09-12T13:53:02.942Z,94738.09
2022-09-12T13:55:33.265Z,94734.16
2022-09-12T13:58:02.456Z,94729.53
2022-09-12T14:00:32.439Z,94725.00
2022-09-12T14:03:18.323Z,94722.72
2022-09-12T14:05:48.142Z,94720.81
2022-09-12T14:08:18.335Z,94721.69
2022-09-12T14:10:47.992Z,94712.28
2022-09-12T14:13:20.552Z,94714.72
2022-09-12T14:15:50.466Z,94707.59
2022-09-12T14:18:25.745Z,94695.47
2022-09-12T14:20:56.990Z,94700.25
2022-09-12T14:23:36.239Z,94706.19
2022-09-12T14:26:06.170Z,94703.31
2022-09-12T14:28:34.902Z,94709.06
2022-09-12T14:31:06.601Z,94710.97
2022-09-12T14:33:47.619Z,94702.78
2022-09-12T14:36:21.389Z,94697.09
2022-09-12T14:38:52.710Z,94700.63
2022-09-12T14:41:26.862Z,94697.31
2022-09-12T14:43:58.789Z,94690.50
2022-09-12T14:46:31.252Z,94699.97
2022-09-12T14:49:02.273Z,94695.72
2022-09-12T14:51:38.672Z,94696.06
2022-09-12T14:54:36.636Z,94699.53
2022-09-12T14:57:07.087Z,94695.41
2022-09-12T14:59:39.393Z,94688.38
2022-09-12T15:02:22.132Z,94686.09
2022-09-12T15:04:50.733Z,94688.78
2022-09-12T15:07:26.702Z,94681.38
2022-09-12T15:09:54.902Z,94680.28
2022-09-12T15:12:22.756Z,94680.28
2022-09-12T15:14:49.501Z,94682.72
2022-09-12T15:17:16.641Z,94678.97
2022-09-12T15:19:43.512Z,94676.84
2022-09-12T15:22:11.812Z,94685.00
2022-09-12T15:24:39.850Z,94681.63
2022-09-12T15:27:12.069Z,94679.16
2022-09-12T15:29:39.081Z,94677.50
2022-09-12T15:32:07.615Z,94678.31
2022-09-12T15:34:34.123Z,94673.25
2022-09-12T15:37:00.908Z,94681.34
2022-09-12T15:39:28.364Z,94679.31
2022-09-12T15:41:59.250Z,94674.19
2022-09-12T15:44:27.567Z,94674.88
2022-09-12T15:46:54.214Z,94682.59
2022-09-12T15:49:21.032Z,94687.59
2022-09-12T15:51:47.690Z,94684.78
2022-09-12T15:54:17.522Z,94688.41
2022-09-12T15:56:44.221Z,94688.59
2022-09-12T15:59:10.923Z,94687.84
2022-09-12T16:01:39.692Z,94687.06
2022-09-12T16:04:21.201Z,94682.00
2022-09-12T16:06:48.259Z,94682.59
2022-09-12T16:09:16.837Z,94673.59
2022-09-12T16:11:45.195Z,94669.91
2022-09-12T16:14:14.286Z,94669.13
2022-09-12T16:16:43.453Z,94672.97
2022-09-12T16:19:11.833Z,94665.53
2022-09-12T16:21:39.092Z,94671.16
2022-09-12T16:24:06.163Z,94664.91
2022-09-12T16:26:35.089Z,94664.69
2022-09-12T16:29:02.555Z,94657.59
2022-09-12T16:31:29.686Z,94652.81
2022-09-12T16:36:43.844Z,94658.22
2022-09-12T16:39:14.056Z,94644.75
2022-09-12T16:41:46.431Z,94641.69
2022-09-12T16:44:13.263Z,94650.69
2022-09-12T16:46:40.888Z,94645.09
2022-09-12T16:49:10.647Z,94648.00
2022-09-12T16:51:37.645Z,94656.16
2022-09-12T16:54:04.766Z,94646.28
2022-09-12T16:56:31.570Z,94644.03
2022-09-12T16:59:01.829Z,94646.03
2022-09-12T17:01:28.662Z,94647.91
2022-09-12T17:03:56.695Z,94650.56
2022-09-12T17:06:27.113Z,94657.50
2022-09-12T17:08:55.237Z,94649.25
2022-09-12T17:11:23.853Z,94650.66
2022-09-12T17:14:04.361Z,94652.34
2022-09-12T17:16:32.931Z,94654.06
2022-09-12T17:18:59.981Z,94650.97
2022-09-12T17:21:28.474Z,94656.53
2022-09-12T17:23:55.438Z,94652.47
2022-09-12T17:26:22.739Z,94652.66
2022-09-12T17:28:49.879Z,94654.59
2022-09-12T17:31:17.456Z,94646.91
2022-09-12T17:33:46.153Z,94644.41
2022-09-12T17:36:15.305Z,94643.31
2022-09-12T17:38:45.331Z,94643.84
2022-09-12T17:41:18.087Z,94641.22
2022-09-12T17:43:46.464Z,94647.84
2022-09-12T17:46:14.292Z,94650.09
2022-09-12T17:48:41.841Z,94647.16
2022-09-12T17:51:10.023Z,94647.06
2022-09-12T17:53:37.136Z,94646.59
2022-09-12T17:56:08.617Z,94647.53
2022-09-12T17:58:35.953Z,94645.06
2022-09-12T18:01:23.207Z,94655.00
2022-09-12T18:03:52.099Z,94654.38
2022-09-12T18:06:18.854Z,94664.44
2022-09-12T18:08:45.769Z,94670.41
2022-09-12T18:11:14.095Z,94671.19
2022-09-12T18:13:40.832Z,94671.97
2022-09-12T18:16:10.464Z,94671.69
2022-09-12T18:18:38.244Z,94677.66
2022-09-12T18:21:07.250Z,94678.31
2022-09-12T18:23:35.125Z,94681.44
2022-09-12T18:26:03.852Z,94674.28
2022-09-12T18:28:34.475Z,94673.66
2022-09-12T18:31:01.616Z,94670.34
2022-09-12T18:33:28.466Z,94682.31
2022-09-12T18:35:55.236Z,94677.50
2022-09-12T18:38:22.166Z,94677.91
2022-09-12T18:40:49.215Z,94676.50
2022-09-12T18:43:16.167Z,94677.09
2022-09-12T18:45:44.330Z,94683.00
2022-09-12T18:48:11.230Z,94684.38
2022-09-12T18:50:38.045Z,94677.84
2022-09-12T18:53:05.007Z,94681.56
2022-09-12T18:55:33.014Z,94685.75
2022-09-12T18:57:59.788Z,94680.88
2022-09-12T19:00:27.194Z,94676.75
2022-09-12T19:02:55.337Z,94679.34
2022-09-12T19:05:21.989Z,94680.97
2022-09-12T19:07:48.872Z,94678.34
2022-09-12T19:10:15.624Z,94681.56
2022-09-12T19:12:43.250Z,94694.34
2022-09-12T19:15:10.721Z,94689.66
2022-09-12T19:17:37.346Z,94684.25
2022-09-12T19:20:06.807Z,94688.50
2022-09-12T19:22:33.593Z,94684.19
2022-09-12T19:25:00.435Z,94687.75
2022-09-12T19:27:27.114Z,94688.03
2022-09-12T19:29:53.978Z,94679.44
2022-09-12T19:32:20.829Z,94682.50
2022-09-12T19:34:47.626Z,94678.38
2022-09-12T19:37:16.362Z,94678.47
2022-09-12T19:39:44.624Z,94680.91
2022-09-12T19:42:11.933Z,94675.91
2022-09-12T19:44:39.262Z,94677.47
2022-09-12T19:47:06.376Z,94682.19
2022-09-12T19:49:33.030Z,94684.69
2022-09-12T19:51:59.899Z,94677.56
2022-09-12T19:54:27.885Z,94682.41
2022-09-12T19:56:54.838Z,94686.66
2022-09-12T19:59:21.516Z,94682.03
2022-09-12T20:01:48.342Z,94675.59
2022-09-12T20:04:15.129Z,94680.13
2022-09-12T20:06:42.393Z,94675.09
2022-09-12T20:09:09.075Z,94681.53
2022-09-12T20:11:37.336Z,94679.34
2022-09-12T20:14:04.043Z,94675.41
2022-09-12T20:16:31.680Z,94680.53
2022-09-12T20:19:00.917Z,94686.44
2022-09-12T20:21:34.319Z,94680.63
2022-09-12T20:24:03.074Z,94686.25
2022-09-12T20:26:30.516Z,94677.25
2022-09-12T20:28:58.681Z,94680.50
2022-09-12T20:31:25.696Z,94681.09
2022-09-12T20:33:52.449Z,94681.97
2022-09-12T20:36:21.385Z,94676.75
2022-09-12T20:38:50.130Z,94676.88
2022-09-12T20:41:18.332Z,94680.66
2022-09-12T20:43:45.793Z,94673.53
2022-09-12T20:46:13.869Z,94680.53
2022-09-12T20:48:40.784Z,94685.75
2022-09-12T20:51:07.877Z,94683.75
2022-09-12T20:53:35.606Z,94683.84
2022-09-12T20:56:04.237Z,94682.34
2022-09-12T20:58:31.495Z,94683.50
2022-09-12T21:01:00.806Z,94683.88
2022-09-12T21:03:29.457Z,94686.59
2022-09-12T21:05:56.804Z,94680.88
2022-09-12T21:08:23.736Z,94689.28
2022-09-12T21:10:50.404Z,94681.44
2022-09-12T21:13:17.097Z,94679.44
2022-09-12T21:15:44.934Z,94681.66
2022-09-12T21:18:11.660Z,94685.97
2022-09-12T21:20:39.625Z,94686.81
2022-09-12T21:23:06.526Z,94682.63
2022-09-12T21:25:33.179Z,94682.69
2022-09-12T21:27:59.810Z,94681.97
2022-09-12T21:30:27.580Z,94671.41
2022-09-12T21:32:54.255Z,94670.75
2022-09-12T21:35:21.229Z,94678.09
2022-09-12T21:37:51.425Z,94676.41
2022-09-12T21:40:18.089Z,94686.88
2022-09-12T21:42:45.019Z,94689.28
2022-09-12T21:45:11.622Z,94697.25
2022-09-12T21:47:39.260Z,94689.78
2022-09-12T21:50:07.149Z,94689.53
2022-09-12T21:52:34.217Z,94697.25
2022-09-12T21:55:05.200Z,94695.88
2022-09-12T21:57:32.169Z,94692.13
2022-09-12T21:59:58.930Z,94691.78
2022-09-12T22:02:28.407Z,94692.50
2022-09-12T22:04:55.408Z,94692.25
2022-09-12T22:07:23.074Z,94693.53
2022-09-12T22:09:50.316Z,94698.63
2022-09-12T22:12:19.228Z,94686.97
2022-09-12T22:14:48.521Z,94696.09
2022-09-12T22:17:15.213Z,94695.34
2022-09-12T22:19:41.895Z,94691.09
2022-09-12T22:22:27.063Z,94694.25
2022-09-12T22:24:53.819Z,94687.59
2022-09-12T22:27:21.819Z,94682.22
2022-09-12T22:29:49.577Z,94686.97
2022-09-12T22:32:17.088Z,94686.41
2022-09-12T22:34:43.893Z,94679.72
2022-09-12T22:37:11.953Z,94686.41
2022-09-12T22:39:38.940Z,94687.75
2022-09-12T22:42:05.989Z,94685.16
2022-09-12T22:44:34.120Z,94690.81
2022-09-12T22:47:00.947Z,94687.19
2022-09-12T22:49:27.562Z,94680.63
2022-09-12T22:51:54.237Z,94680.97
2022-09-12T22:54:20.852Z,94675.69
2022-09-12T22:56:47.500Z,94684.72
2022-09-12T22:59:14.299Z,94674.91
2022-09-12T23:01:42.306Z,94673.56
2022-09-12T23:04:10.942Z,94679.94
2022-09-12T23:06:37.559Z,94677.28
2022-09-12T23:09:04.282Z,94676.47
2022-09-12T23:11:31.068Z,94671.16
2022-09-12T23:13:57.994Z,94668.50
2022-09-12T23:16:26.005Z,94672.00
2022-09-12T23:18:54.195Z,94664.09
2022-09-12T23:21:21.615Z,94666.53
2022-09-12T23:23:48.491Z,94663.13
2022-09-12T23:26:17.345Z,94665.25
2022-09-12T23:28:49.031Z,94652.56
2022-09-12T23:31:17.158Z,94650.72
2022-09-12T23:33:44.256Z,94646.53
2022-09-12T23:36:14.151Z,94643.72
2022-09-12T23:38:42.294Z,94639.50
2022-09-12T23:41:10.293Z,94641.34
2022-09-12T23:43:37.188Z,94641.13
2022-09-12T23:46:05.115Z,94631.31
2022-09-12T23:48:32.105Z,94629.72
2022-09-12T23:50:59.532Z,94627.31
2022-09-12T23:53:27.763Z,94621.44
2022-09-12T23:55:54.431Z,94631.00
2022-09-12T23:58:22.668Z,94629.16
